Time;durP1;ratioP1;P1;durP2;ratioP2;P2;SDS_P1;SDS_P2;PMS_P1;PMS_P2;Temp;Humidity;BMP_temperature;BMP_pressure;BME280_temperature;BME280_humidity;BME280_pressure;Samples;Min_cycle;Max_cycle;Signal;HPM_P1;HPM_P2
2021/04/02 00:02:09;;;;;;;14.50;9.63;;;;;;;7.09;84.05;101043.25;5019420;28;20036;-73
2021/04/02 00:04:36;;;;;;;13.02;9.45;;;;;;;7.11;84.18;101043.31;5019228;28;20034;-74
2021/04/02 00:07:05;;;;;;;12.02;9.52;;;;;;;7.11;83.89;101048.56;5019124;28;20030;-74
2021/04/02 00:09:30;;;;;;;13.27;10.13;;;;;;;7.09;84.42;101042.38;5019272;28;20136;-74
2021/04/02 00:11:56;;;;;;;13.77;9.27;;;;;;;7.12;84.57;101050.31;5021979;28;20698;-74
2021/04/02 00:14:21;;;;;;;16.45;11.48;;;;;;;7.13;84.18;101044.22;5024727;28;20345;-74
2021/04/02 00:16:46;;;;;;;12.95;10.02;;;;;;;7.24;84.11;101046.13;5021122;28;20109;-74
2021/04/02 00:19:12;;;;;;;14.93;10.75;;;;;;;7.23;83.99;101036.50;5023670;28;20041;-74
2021/04/02 00:21:37;;;;;;;14.20;9.95;;;;;;;7.29;82.79;101035.72;5035885;28;20036;-74
2021/04/02 00:24:03;;;;;;;13.32;9.73;;;;;;;7.29;82.96;101045.34;5047537;28;20036;-74
2021/04/02 00:26:28;;;;;;;15.32;10.23;;;;;;;7.25;82.53;101039.13;5027878;28;20037;-74
2021/04/02 00:28:55;;;;;;;15.18;9.90;;;;;;;7.24;81.93;101037.38;5021445;28;20065;-73
2021/04/02 00:31:22;;;;;;;13.63;9.88;;;;;;;7.19;82.39;101046.94;5022500;28;20396;-74
2021/04/02 00:33:47;;;;;;;12.32;9.60;;;;;;;7.13;82.30;101036.34;5020687;28;20052;-73
2021/04/02 00:36:13;;;;;;;13.80;9.88;;;;;;;7.14;82.44;101046.84;5018892;28;20492;-74
2021/04/02 00:38:39;;;;;;;16.02;10.07;;;;;;;7.12;82.13;101038.06;5018159;28;20034;-74
2021/04/02 00:41:08;;;;;;;13.43;9.38;;;;;;;7.09;81.73;101039.75;5022168;28;20068;-74
2021/04/02 00:43:51;;;;;;;13.82;10.40;;;;;;;7.07;81.96;101049.34;5022738;28;20056;-74
2021/04/02 00:46:20;;;;;;;14.70;10.05;;;;;;;7.08;81.33;101045.88;5023019;28;20041;-74
2021/04/02 00:48:47;;;;;;;15.75;9.77;;;;;;;7.04;81.74;101039.69;5023309;28;20399;-74
2021/04/02 00:51:21;;;;;;;14.95;11.15;;;;;;;7.03;81.80;101038.81;5024599;28;20041;-74
2021/04/02 00:53:47;;;;;;;13.98;10.30;;;;;;;7.02;81.84;101037.03;5024330;28;20037;-74
2021/04/02 00:56:14;;;;;;;15.45;10.63;;;;;;;7.00;81.66;101040.50;5024093;28;20044;-74
2021/04/02 00:58:40;;;;;;;14.00;10.85;;;;;;;6.92;81.36;101047.38;5046509;28;20035;-74
2021/04/02 01:01:08;;;;;;;15.98;11.25;;;;;;;6.97;81.73;101045.72;5025921;28;20044;-74
2021/04/02 01:03:34;;;;;;;14.00;9.00;;;;;;;7.01;81.53;101050.13;5041302;28;20039;-74
2021/04/02 01:06:07;;;;;;;17.92;9.73;;;;;;;6.99;81.08;101049.22;5032527;28;20033;-74
2021/04/02 01:08:36;;;;;;;12.52;8.98;;;;;;;6.95;80.17;101060.53;5027048;28;20057;-74
2021/04/02 01:11:09;;;;;;;11.70;8.10;;;;;;;6.85;80.32;101058.59;5020667;28;20029;-74
2021/04/02 01:13:44;;;;;;;11.00;7.32;;;;;;;6.82;79.01;101056.81;5028894;28;20067;-74
2021/04/02 01:16:17;;;;;;;11.02;6.78;;;;;;;6.70;78.95;101064.44;5004534;28;20425;-73
2021/04/02 01:18:51;;;;;;;11.00;6.63;;;;;;;6.57;78.99;101068.59;5028952;28;20040;-75
2021/04/02 01:21:36;;;;;;;8.27;6.20;;;;;;;6.55;78.87;101079.06;5020713;28;20030;-74
2021/04/02 01:24:20;;;;;;;9.80;5.80;;;;;;;6.52;78.55;101065.91;5020892;28;20041;-74
2021/04/02 01:27:07;;;;;;;8.88;5.90;;;;;;;6.53;78.54;101070.28;5029811;28;20043;-74
2021/04/02 01:29:54;;;;;;;11.48;6.82;;;;;;;6.47;79.43;101070.19;5021843;28;20029;-74
2021/04/02 01:32:28;;;;;;;10.07;6.93;;;;;;;6.51;78.91;101073.72;5020641;28;20061;-74
2021/04/02 01:34:58;;;;;;;;;;;;;;;6.42;79.12;101078.78;5023187;28;20124;-75
2021/04/02 01:37:53;;;;;;;7.25;5.75;;;;;;;6.41;79.08;101077.91;5023770;28;19917;-74
2021/04/02 01:40:23;;;;;;;8.45;5.55;;;;;;;6.49;79.06;101088.53;5021288;28;20087;-74
2021/04/02 01:42:51;;;;;;;7.55;5.60;;;;;;;6.36;79.22;101087.41;5028575;28;20060;-73
2021/04/02 01:45:17;;;;;;;8.43;5.35;;;;;;;6.39;78.97;101090.09;5021202;28;20038;-73
2021/04/02 01:47:46;;;;;;;6.97;5.35;;;;;;;6.30;78.94;101087.31;5021358;28;20030;-73
2021/04/02 01:50:17;;;;;;;7.30;5.25;;;;;;;6.33;79.04;101093.47;5031685;28;20025;-73
2021/04/02 01:52:46;;;;;;;8.60;5.53;;;;;;;6.29;78.89;101093.41;5023775;28;20432;-73
2021/04/02 01:55:13;;;;;;;8.57;5.25;;;;;;;6.22;79.40;101091.50;5021138;28;20109;-73
2021/04/02 01:57:40;;;;;;;7.53;5.55;;;;;;;6.08;80.37;101083.38;5020495;28;20057;-74
2021/04/02 02:00:17;;;;;;;9.38;5.18;;;;;;;6.06;80.67;101082.44;5022604;28;20120;-73
2021/04/02 02:02:43;;;;;;;8.05;5.70;;;;;;;5.99;81.00;101084.03;5023688;28;20041;-74
2021/04/02 02:05:11;;;;;;;6.68;5.38;;;;;;;5.89;81.89;101087.28;5020945;28;20434;-74
2021/04/02 02:07:42;;;;;;;7.63;5.25;;;;;;;5.84;82.36;101088.91;5020082;28;20392;-74
2021/04/02 02:10:10;;;;;;;6.80;5.63;;;;;;;5.85;82.23;101090.69;5023107;28;20086;-73
2021/04/02 02:12:40;;;;;;;7.72;6.15;;;;;;;5.85;82.62;101096.81;5028041;28;20116;-73
2021/04/02 02:15:18;;;;;;;7.00;6.13;;;;;;;5.90;82.47;101094.31;5024249;28;20511;-74
2021/04/02 02:17:56;;;;;;;6.80;5.65;;;;;;;5.84;82.89;101100.28;5030166;28;20041;-72
2021/04/02 02:20:23;;;;;;;8.05;6.03;;;;;;;5.78;82.99;101099.25;5019638;28;20519;-74
2021/04/02 02:22:49;;;;;;;8.13;5.88;;;;;;;5.70;83.33;101097.34;5022490;28;20504;-74
2021/04/02 02:25:18;;;;;;;7.15;5.57;;;;;;;5.70;83.65;101102.56;5030986;28;20128;-73
2021/04/02 02:27:55;;;;;;;9.23;5.97;;;;;;;5.68;83.67;101103.41;5020450;28;20048;-73
2021/04/02 02:30:25;;;;;;;8.82;6.97;;;;;;;5.68;84.05;101104.28;5019233;28;20026;-74
2021/04/02 02:32:57;;;;;;;9.00;6.47;;;;;;;5.68;84.16;101099.03;5022064;28;20518;-73
2021/04/02 02:35:25;;;;;;;8.35;6.03;;;;;;;5.70;83.97;101107.81;5022458;28;20045;-73
2021/04/02 02:37:56;;;;;;;7.45;5.60;;;;;;;5.63;83.38;101112.88;5020376;28;20068;-73
2021/04/02 02:40:26;;;;;;;7.18;5.05;;;;;;;5.60;83.63;101111.06;5018955;28;20049;-74
2021/04/02 02:42:56;;;;;;;5.75;4.68;;;;;;;5.56;83.84;101119.72;5027194;28;20033;-73
2021/04/02 02:45:23;;;;;;;9.45;4.97;;;;;;;5.56;82.88;101114.47;5018794;28;20408;-73
2021/04/02 02:47:49;;;;;;;6.88;5.05;;;;;;;5.49;83.06;101113.44;5020640;28;20084;-73
2021/04/02 02:50:24;;;;;;;8.38;5.80;;;;;;;5.49;83.05;101116.06;5023699;28;20036;-73
2021/04/02 02:52:52;;;;;;;8.23;5.78;;;;;;;5.42;82.69;101113.25;5020501;28;20087;-74
2021/04/02 02:55:21;;;;;;;7.97;5.18;;;;;;;5.37;82.96;101120.09;5021135;28;20511;-73
2021/04/02 02:57:48;;;;;;;7.68;5.63;;;;;;;5.34;83.42;101130.50;5027003;28;20029;-73
2021/04/02 03:00:18;;;;;;;7.80;5.60;;;;;;;5.30;82.92;101120.84;5018821;28;20176;-74
2021/04/02 03:02:47;;;;;;;7.95;5.53;;;;;;;5.28;82.84;101124.28;5022694;28;20030;-74
2021/04/02 03:05:15;;;;;;;11.52;6.32;;;;;;;5.27;83.13;101122.50;5022095;28;20171;-73
2021/04/02 03:07:41;;;;;;;13.32;5.40;;;;;;;5.28;82.71;101124.28;5025333;28;20044;-73
2021/04/02 03:10:10;;;;;;;8.65;6.18;;;;;;;5.25;82.67;101118.97;5031301;28;20104;-74
2021/04/02 03:12:39;;;;;;;10.05;4.68;;;;;;;5.34;81.73;101122.66;5043435;28;20029;-74
2021/04/02 03:15:06;;;;;;;7.30;5.82;;;;;;;5.28;82.26;101123.41;5018377;28;20476;-74
2021/04/02 03:17:35;;;;;;;9.15;5.30;;;;;;;5.30;82.08;101120.84;5018695;28;20630;-74
2021/04/02 03:20:04;;;;;;;7.65;4.85;;;;;;;5.26;82.32;101117.22;5023136;28;20041;-73
2021/04/02 03:22:30;;;;;;;6.07;5.18;;;;;;;5.24;82.00;101118.94;5030073;28;20025;-74
2021/04/02 03:25:17;;;;;;;8.32;4.68;;;;;;;5.36;81.76;101118.34;5023271;28;20038;-74
2021/04/02 03:27:49;;;;;;;7.78;5.50;;;;;;;5.32;81.84;101108.63;5021959;28;20030;-74
2021/04/02 03:30:24;;;;;;;6.93;4.97;;;;;;;5.36;81.17;101118.34;5023077;28;20120;-74
2021/04/02 03:32:59;;;;;;;7.95;4.82;;;;;;;5.38;80.99;101117.53;5021162;28;20045;-74
2021/04/02 03:35:26;;;;;;;9.85;4.75;;;;;;;5.38;81.17;101108.81;5018165;28;20381;-74
2021/04/02 03:37:54;;;;;;;6.82;4.53;;;;;;;5.42;81.00;101110.63;5021620;28;20037;-74
2021/04/02 03:40:22;;;;;;;7.35;5.07;;;;;;;5.41;81.25;101108.88;5021424;28;20404;-73
2021/04/02 03:42:52;;;;;;;8.02;4.10;;;;;;;5.54;80.43;101110.94;5011933;28;20040;-74
2021/04/02 03:45:20;;;;;;;6.55;4.47;;;;;;;5.52;80.40;101115.25;5018027;28;20551;-73
2021/04/02 03:47:48;;;;;;;8.18;4.22;;;;;;;5.53;80.00;101114.41;5019422;28;20117;-74
2021/04/02 03:50:16;;;;;;;11.77;5.15;;;;;;;5.55;79.96;101112.69;5001802;28;20037;-74
2021/04/02 03:52:45;;;;;;;6.68;4.43;;;;;;;5.55;80.42;101112.69;5018992;28;20085;-74
2021/04/02 03:55:18;;;;;;;7.82;4.68;;;;;;;5.65;79.59;101116.41;5021464;28;20456;-74
2021/04/02 03:57:48;;;;;;;7.15;4.45;;;;;;;5.70;79.32;101117.41;5020213;28;20039;-73
2021/04/02 04:00:21;;;;;;;9.70;3.85;;;;;;;5.70;79.41;101115.69;5019355;28;20080;-74
2021/04/02 04:03:02;;;;;;;6.70;4.20;;;;;;;5.64;78.90;101122.53;5022462;28;20029;-74
2021/04/02 04:05:28;;;;;;;7.05;3.97;;;;;;;5.69;79.20;101120.91;5021198;28;20091;-73
2021/04/02 04:07:56;;;;;;;7.72;5.43;;;;;;;5.63;79.04;101115.50;5019120;28;20025;-74
2021/04/02 04:10:24;;;;;;;9.73;5.32;;;;;;;5.67;78.80;101117.34;5022454;28;20041;-73
2021/04/02 04:12:53;;;;;;;8.90;5.55;;;;;;;5.65;79.04;101119.91;5021422;28;20534;-74
2021/04/02 04:15:22;;;;;;;13.35;5.82;;;;;;;5.59;78.93;101117.16;5021123;28;20121;-73
2021/04/02 04:17:50;;;;;;;10.80;6.38;;;;;;;5.65;78.70;101108.56;5019991;28;20083;-73
2021/04/02 04:20:19;;;;;;;11.35;5.88;;;;;;;5.71;78.54;101117.47;5017869;28;20034;-74
2021/04/02 04:22:53;;;;;;;11.65;6.47;;;;;;;5.77;78.36;101118.47;5011943;28;20404;-74
2021/04/02 04:25:23;;;;;;;14.00;6.88;;;;;;;5.78;78.25;101110.63;5028176;28;20463;-73
2021/04/02 04:27:50;;;;;;;13.38;5.93;;;;;;;5.71;77.92;101114.84;5024630;28;20485;-73
2021/04/02 04:30:17;;;;;;;10.68;6.18;;;;;;;5.68;77.91;101114.75;5026397;28;20155;-74
2021/04/02 04:32:43;;;;;;;11.77;5.97;;;;;;;5.62;78.13;101112.00;5025477;28;20029;-73
2021/04/02 04:35:11;;;;;;;13.07;6.40;;;;;;;5.61;77.78;101118.09;5022783;28;20455;-73
2021/04/02 04:37:39;;;;;;;11.43;6.25;;;;;;;5.55;77.70;101117.94;5022783;28;20088;-72
2021/04/02 04:40:07;;;;;;;13.25;6.47;;;;;;;5.56;78.37;101114.47;5024747;28;20496;-73
2021/04/02 04:42:33;;;;;;;10.75;6.05;;;;;;;5.53;78.13;101117.03;5021521;28;20073;-73
2021/04/02 04:45:00;;;;;;;13.38;5.80;;;;;;;5.54;78.27;101118.78;5025419;28;20038;-73
2021/04/02 04:47:26;;;;;;;9.77;5.75;;;;;;;5.55;77.66;101111.81;5025930;28;20037;-73
2021/04/02 04:49:51;;;;;;;12.88;6.15;;;;;;;5.43;78.08;101115.91;5023858;28;20554;-75
2021/04/02 04:52:20;;;;;;;13.77;6.28;;;;;;;5.33;78.74;101110.44;5022670;28;20105;-75
2021/04/02 04:54:50;;;;;;;11.65;6.40;;;;;;;5.43;78.85;101113.31;5023671;28;20416;-75
2021/04/02 04:57:16;;;;;;;13.23;5.68;;;;;;;5.59;78.61;101113.66;5025643;28;20040;-75
2021/04/02 04:59:42;;;;;;;12.63;6.85;;;;;;;5.55;79.00;101110.06;5034404;28;20040;-75
2021/04/02 05:02:08;;;;;;;12.90;6.55;;;;;;;5.62;78.03;101114.63;5031691;28;20037;-75
2021/04/02 05:04:33;;;;;;;12.88;6.50;;;;;;;5.65;78.44;101104.22;5030005;28;20048;-75
2021/04/02 05:07:01;;;;;;;14.98;7.18;;;;;;;5.69;77.59;101105.19;5025166;28;20033;-75
2021/04/02 05:09:28;;;;;;;13.27;6.78;;;;;;;5.56;77.66;101098.78;5025792;28;20112;-75
2021/04/02 05:11:56;;;;;;;12.02;7.05;;;;;;;5.55;78.20;101099.59;5020968;28;20524;-75
2021/04/02 05:14:22;;;;;;;11.48;6.60;;;;;;;5.64;77.72;101099.84;5027871;28;20029;-75
2021/04/02 05:16:50;;;;;;;12.27;7.00;;;;;;;5.63;77.82;101099.78;5023450;28;20037;-75
2021/04/02 05:19:17;;;;;;;13.63;6.38;;;;;;;5.76;78.08;101112.31;5025652;28;20112;-75
2021/04/02 05:21:44;;;;;;;12.93;6.28;;;;;;;5.84;76.97;101104.63;5024622;28;20103;-75
2021/04/02 05:24:10;;;;;;;13.10;6.75;;;;;;;5.77;77.39;101106.25;5022006;28;20038;-75
2021/04/02 05:26:36;;;;;;;13.68;6.45;;;;;;;5.63;77.70;101105.94;5021643;28;20526;-75
2021/04/02 05:29:02;;;;;;;10.77;5.90;;;;;;;5.49;78.50;101109.94;5025348;28;20120;-75
2021/04/02 05:31:29;;;;;;;10.13;5.97;;;;;;;5.44;79.17;101109.81;5025213;28;20472;-75
2021/04/02 05:33:55;;;;;;;11.93;6.30;;;;;;;5.56;79.24;101104.00;5023155;28;20044;-75
2021/04/02 05:36:20;;;;;;;11.50;6.75;;;;;;;5.56;79.16;101109.25;5019604;28;20048;-75
2021/04/02 05:38:45;;;;;;;11.15;6.13;;;;;;;5.47;79.50;101103.78;5022976;28;20053;-75
2021/04/02 05:41:13;;;;;;;13.43;7.45;;;;;;;5.43;79.94;101102.84;5025041;28;20045;-75
2021/04/02 05:43:45;;;;;;;13.57;6.40;;;;;;;5.44;80.09;101103.72;5025067;28;20042;-75
2021/04/02 05:46:13;;;;;;;13.02;6.57;;;;;;;5.45;79.57;101102.88;5031906;28;20041;-75
2021/04/02 05:48:41;;;;;;;13.18;6.15;;;;;;;5.39;79.99;101100.09;5024813;28;20467;-75
2021/04/02 05:51:07;;;;;;;14.70;7.07;;;;;;;5.49;79.80;101104.72;5021423;28;20077;-75
2021/04/02 05:53:33;;;;;;;13.25;6.88;;;;;;;5.41;80.14;101111.50;5021321;28;20041;-75
2021/04/02 05:56:02;;;;;;;13.93;7.00;;;;;;;5.38;80.66;101104.44;5024127;28;20060;-75
2021/04/02 05:58:29;;;;;;;13.43;7.63;;;;;;;5.47;80.48;101103.78;5025151;28;20045;-75
2021/04/02 06:00:54;;;;;;;13.82;6.32;;;;;;;5.56;80.22;101109.25;5024834;28;20163;-74
2021/04/02 06:03:20;;;;;;;12.73;6.95;;;;;;;5.61;79.82;101107.63;5033522;28;20064;-75
2021/04/02 06:05:47;;;;;;;14.02;6.85;;;;;;;5.61;79.73;101110.25;5030737;28;20041;-75
2021/04/02 06:08:13;;;;;;;14.18;8.15;;;;;;;5.53;80.00;101109.19;5021363;28;20037;-75
2021/04/02 06:10:39;;;;;;;14.75;6.88;;;;;;;5.60;80.04;101121.53;5024689;28;20400;-75
2021/04/02 06:13:04;;;;;;;13.35;6.38;;;;;;;5.57;79.46;101121.47;5025121;28;20041;-75
2021/04/02 06:15:32;;;;;;;11.82;6.55;;;;;;;5.57;79.35;101115.38;5024254;28;20033;-75
2021/04/02 06:18:13;;;;;;;13.73;7.47;;;;;;;5.54;80.10;101115.28;5021606;28;20029;-75
2021/04/02 06:20:41;;;;;;;14.77;7.28;;;;;;;5.63;80.00;101121.66;5020978;28;20048;-75
2021/04/02 06:23:20;;;;;;;15.70;7.85;;;;;;;5.63;79.80;101125.97;5024339;28;20115;-75
2021/04/02 06:25:57;;;;;;;15.55;7.00;;;;;;;5.60;79.14;101126.78;5023322;28;20039;-75
2021/04/02 06:28:24;;;;;;;14.63;7.40;;;;;;;5.60;79.02;101129.41;5021141;28;20034;-74
2021/04/02 06:31:00;;;;;;;11.68;6.20;;;;;;;5.61;79.13;101132.94;5022234;28;20049;-74
2021/04/02 06:33:42;;;;;;;10.77;6.53;;;;;;;5.57;79.45;101125.84;5024141;28;20045;-74
2021/04/02 06:36:16;;;;;;;12.43;7.28;;;;;;;5.56;79.66;101137.16;5020494;28;20034;-75
2021/04/02 06:39:03;;;;;;;15.18;6.70;;;;;;;5.56;79.37;101139.78;5021332;28;20065;-75
2021/04/02 06:41:30;;;;;;;13.57;6.22;;;;;;;5.59;79.71;101135.50;5024770;28;20512;-75
2021/04/02 06:43:58;;;;;;;12.85;5.80;;;;;;;5.62;79.70;101135.56;5023843;28;20034;-75
2021/04/02 06:46:27;;;;;;;12.43;6.18;;;;;;;5.66;79.62;101137.41;5023360;28;20076;-75
2021/04/02 06:48:54;;;;;;;15.93;5.70;;;;;;;5.72;79.37;101141.91;5021664;28;20061;-75
2021/04/02 06:51:22;;;;;;;16.52;6.60;;;;;;;5.68;78.86;101132.19;5020331;28;20029;-74
2021/04/02 06:53:50;;;;;;;12.45;5.93;;;;;;;5.68;78.56;101134.81;5021558;28;20060;-74
2021/04/02 06:56:18;;;;;;;10.45;5.95;;;;;;;5.68;78.79;101140.06;5030389;28;20432;-75
2021/04/02 06:58:44;;;;;;;11.60;6.15;;;;;;;5.77;79.00;101142.03;5021607;28;20033;-75
2021/04/02 07:01:14;;;;;;;12.07;5.72;;;;;;;5.88;77.69;101145.78;5031062;28;20040;-74
2021/04/02 07:03:41;;;;;;;12.05;6.07;;;;;;;5.83;77.38;101150.91;5030918;28;20048;-74
2021/04/02 07:06:07;;;;;;;9.57;5.43;;;;;;;5.89;77.91;101151.06;5030721;28;20140;-74
2021/04/02 07:08:34;;;;;;;12.43;6.78;;;;;;;5.90;77.12;101152.81;5025714;28;20388;-74
2021/04/02 07:11:00;;;;;;;14.05;7.40;;;;;;;5.86;77.29;101150.97;5029343;28;20524;-74
2021/04/02 07:13:35;;;;;;;17.50;6.88;;;;;;;5.86;76.72;101143.09;5015587;28;20044;-74
2021/04/02 07:16:01;;;;;;;14.52;6.97;;;;;;;5.95;76.87;101155.59;5021585;28;20104;-74
2021/04/02 07:18:28;;;;;;;13.13;7.28;;;;;;;5.96;76.21;101149.47;5025474;28;20041;-74
2021/04/02 07:20:54;;;;;;;15.18;7.28;;;;;;;5.83;77.17;101145.66;5023189;28;20562;-74
2021/04/02 07:23:20;;;;;;;16.27;7.72;;;;;;;5.96;76.80;101151.22;5020567;28;20028;-74
2021/04/02 07:25:45;;;;;;;15.88;8.50;;;;;;;5.90;76.66;101147.56;5020048;28;20029;-75
2021/04/02 07:28:11;;;;;;;16.45;7.82;;;;;;;5.92;76.29;101150.22;5019016;28;20519;-75
2021/04/02 07:30:38;;;;;;;13.82;7.85;;;;;;;5.88;76.93;101153.63;5025011;28;20412;-76
2021/04/02 07:33:12;;;;;;;14.27;7.57;;;;;;;5.82;76.48;101146.53;5018063;28;20029;-75
2021/04/02 07:35:38;;;;;;;15.27;7.93;;;;;;;5.86;76.63;101145.72;5003594;28;20075;-75
2021/04/02 07:38:09;;;;;;;13.93;8.52;;;;;;;5.98;76.07;101155.66;5018369;28;20034;-75
2021/04/02 07:40:35;;;;;;;17.70;8.65;;;;;;;5.97;75.61;101148.63;5018622;28;20043;-75
2021/04/02 07:43:05;;;;;;;14.48;7.93;;;;;;;5.96;76.17;101141.63;5016950;28;20400;-75
2021/04/02 07:45:33;;;;;;;15.00;7.97;;;;;;;6.02;75.84;101146.97;5018670;28;20030;-75
2021/04/02 07:48:15;;;;;;;16.35;8.73;;;;;;;6.08;76.55;101151.50;5020308;28;20116;-75
2021/04/02 07:50:47;;;;;;;16.25;9.35;;;;;;;6.11;75.92;101152.44;5019644;28;20029;-74
2021/04/02 07:53:24;;;;;;;13.10;7.72;;;;;;;6.12;75.47;101154.19;5018883;28;20117;-75
2021/04/02 07:56:05;;;;;;;27.05;12.13;;;;;;;5.98;76.41;101158.25;5028258;28;20018;-74
2021/04/02 07:58:31;;;;;;;20.25;10.50;;;;;;;6.06;75.92;101154.06;5026718;28;20090;-75
2021/04/02 08:00:58;;;;;;;15.85;8.85;;;;;;;6.06;76.05;101154.06;5026790;28;20061;-75
2021/04/02 08:03:33;;;;;;;18.48;8.75;;;;;;;6.10;75.45;101161.16;5028511;28;20042;-75
2021/04/02 08:06:08;;;;;;;14.80;8.43;;;;;;;6.12;75.10;101169.91;5026371;28;20030;-75
2021/04/02 08:08:45;;;;;;;17.77;8.43;;;;;;;6.09;75.39;101167.25;5027169;28;20109;-75
2021/04/02 08:11:44;;;;;;;14.43;7.95;;;;;;;6.08;75.49;101162.88;5022951;28;20060;-75
2021/04/02 08:14:14;;;;;;;18.73;8.23;;;;;;;6.22;74.75;101159.66;5015908;28;20042;-74
2021/04/02 08:16:41;;;;;;;15.77;6.25;;;;;;;6.27;75.21;101166.75;5023621;28;20045;-75
2021/04/02 08:19:10;;;;;;;13.25;5.72;;;;;;;6.36;74.28;101168.69;5027267;28;20037;-75
2021/04/02 08:21:38;;;;;;;13.27;5.25;;;;;;;6.35;73.59;101174.78;5042120;28;20033;-75
2021/04/02 08:24:05;;;;;;;9.93;4.70;;;;;;;6.49;73.46;101170.72;5024687;28;20065;-75
2021/04/02 08:26:33;;;;;;;11.30;5.32;;;;;;;6.54;72.35;101173.44;5030269;28;20083;-75
2021/04/02 08:29:03;;;;;;;13.15;5.95;;;;;;;6.51;72.94;101169.00;5024669;28;20038;-75
2021/04/02 08:31:29;;;;;;;9.50;4.50;;;;;;;6.53;72.45;101171.69;5027322;28;20037;-76
2021/04/02 08:33:55;;;;;;;10.65;5.20;;;;;;;6.53;71.77;101169.94;5026198;28;20113;-76
2021/04/02 08:36:23;;;;;;;9.93;5.05;;;;;;;6.55;71.27;101176.09;5026042;28;20182;-75
2021/04/02 08:38:50;;;;;;;11.10;5.57;;;;;;;6.64;71.17;101171.91;5024739;28;20056;-75
2021/04/02 08:41:30;;;;;;;10.65;5.18;;;;;;;6.70;70.19;101174.63;5022657;28;20399;-76
2021/04/02 08:43:57;;;;;;;11.90;5.57;;;;;;;6.71;70.95;101176.41;5025135;28;20049;-76
2021/04/02 08:46:51;;;;;;;9.95;4.90;;;;;;;6.73;71.20;101174.69;5025784;28;20087;-76
2021/04/02 08:49:16;;;;;;;9.93;4.43;;;;;;;6.90;70.25;101181.16;5013691;28;20506;-76
2021/04/02 08:51:47;;;;;;;10.25;4.88;;;;;;;7.01;70.26;101182.22;5022891;28;20034;-76
2021/04/02 08:54:16;;;;;;;8.48;5.00;;;;;;;6.98;70.32;101187.44;5028350;28;20029;-76
2021/04/02 08:56:42;;;;;;;7.90;4.47;;;;;;;6.92;69.35;101187.31;5025587;28;20045;-75
2021/04/02 08:59:09;;;;;;;7.57;4.70;;;;;;;6.78;69.61;101183.53;5026729;28;20033;-76
2021/04/02 09:01:41;;;;;;;8.75;4.88;;;;;;;6.69;70.67;101180.75;5026879;28;20053;-76
2021/04/02 09:04:08;;;;;;;15.38;5.93;;;;;;;6.80;69.95;101189.69;5025306;28;20034;-77
2021/04/02 09:06:33;;;;;;;10.07;4.47;;;;;;;6.88;69.47;101180.22;5025634;28;20033;-77
2021/04/02 09:09:01;;;;;;;9.00;4.85;;;;;;;6.94;69.26;101190.88;5029130;28;20374;-76
2021/04/02 09:11:26;;;;;;;10.23;5.25;;;;;;;6.84;69.19;101186.28;5033974;28;20045;-77
2021/04/02 09:13:52;;;;;;;6.80;4.05;;;;;;;6.71;69.17;101177.28;5031251;28;20038;-77
2021/04/02 09:16:19;;;;;;;7.50;4.32;;;;;;;6.67;69.43;101175.44;5030508;28;20041;-76
2021/04/02 09:18:56;;;;;;;10.95;4.68;;;;;;;6.73;69.30;101187.78;5026783;28;20037;-76
2021/04/02 09:21:23;;;;;;;8.27;4.32;;;;;;;6.71;68.96;101177.28;5028870;28;20112;-77
2021/04/02 09:23:53;;;;;;;8.23;4.47;;;;;;;6.70;69.39;101174.63;5027757;28;20120;-77
2021/04/02 09:26:19;;;;;;;8.93;4.60;;;;;;;6.79;69.58;101169.56;5031766;28;20045;-77
2021/04/02 09:28:45;;;;;;;7.63;4.55;;;;;;;6.95;68.17;101171.63;5019753;28;20496;-75
2021/04/02 09:31:19;;;;;;;8.25;4.78;;;;;;;6.97;68.57;101177.81;5025270;28;20025;-75
2021/04/02 09:33:46;;;;;;;9.43;4.95;;;;;;;7.18;68.14;101171.19;5024388;28;20040;-75
2021/04/02 09:36:13;;;;;;;8.93;4.90;;;;;;;7.35;67.33;101171.47;5021532;28;20038;-75
2021/04/02 09:38:40;;;;;;;7.15;4.38;;;;;;;7.52;66.15;101163.84;5021763;28;20029;-75
2021/04/02 09:41:05;;;;;;;7.63;4.07;;;;;;;7.63;66.07;101157.94;5023635;28;20033;-75
2021/04/02 09:43:46;;;;;;;6.95;4.30;;;;;;;7.92;65.10;101154.00;5025082;28;20091;-75
2021/04/02 09:46:14;;;;;;;6.53;4.00;;;;;;;8.19;64.26;101141.22;5021375;28;20045;-75
2021/04/02 09:48:39;;;;;;;9.85;4.13;;;;;;;8.25;64.05;101141.31;5021756;28;20049;-75
2021/04/02 09:51:05;;;;;;;6.45;4.05;;;;;;;8.55;64.21;101142.59;5024754;28;20139;-75
2021/04/02 09:53:31;;;;;;;5.07;3.75;;;;;;;8.59;61.88;101140.84;5024863;28;20392;-75
2021/04/02 09:55:56;;;;;;;6.95;3.67;;;;;;;8.52;63.02;101142.56;5018884;28;20073;-75
2021/04/02 09:58:22;;;;;;;8.23;3.95;;;;;;;8.55;62.36;101140.81;5027006;28;20563;-75
2021/04/02 10:00:47;;;;;;;7.15;4.10;;;;;;;8.52;62.91;101145.19;5021218;28;20042;-75
2021/04/02 10:03:13;;;;;;;6.38;4.03;;;;;;;8.68;62.09;101144.50;5024671;28;20033;-75
2021/04/02 10:05:39;;;;;;;6.00;3.92;;;;;;;8.22;63.86;101133.34;5024086;28;20072;-75
2021/04/02 10:08:05;;;;;;;6.72;3.88;;;;;;;8.31;62.55;101130.84;5022215;28;20057;-75
2021/04/02 10:10:30;;;;;;;5.68;3.88;;;;;;;8.26;63.26;101123.78;5022834;28;20044;-74
2021/04/02 10:12:56;;;;;;;5.43;3.22;;;;;;;8.29;63.32;101114.19;5024320;28;20105;-75
2021/04/02 10:15:21;;;;;;;5.63;3.92;;;;;;;8.47;62.81;101124.06;5024387;28;20404;-75
2021/04/02 10:17:46;;;;;;;6.45;3.50;;;;;;;8.31;62.79;101116.84;5030290;28;20511;-75
2021/04/02 10:20:12;;;;;;;5.82;4.05;;;;;;;8.38;62.81;101112.53;5038043;28;20120;-75
2021/04/02 10:22:37;;;;;;;6.78;4.70;;;;;;;8.50;63.12;101112.72;5030496;28;20053;-77
2021/04/02 10:25:04;;;;;;;6.72;4.10;;;;;;;8.53;62.97;101118.88;5035115;28;20404;-77
2021/04/02 10:27:30;;;;;;;6.50;3.47;;;;;;;8.63;62.38;101114.59;5026442;28;20048;-75
2021/04/02 10:29:55;;;;;;;8.38;4.30;;;;;;;8.81;62.87;101108.66;5022999;28;20036;-75
2021/04/02 10:32:20;;;;;;;6.47;3.90;;;;;;;8.99;61.98;101107.97;5020861;28;20105;-75
2021/04/02 10:34:46;;;;;;;6.78;4.07;;;;;;;8.97;61.16;101104.44;5021915;28;20149;-76
2021/04/02 10:37:12;;;;;;;6.60;4.05;;;;;;;9.03;61.08;101093.94;5025947;28;20033;-75
2021/04/02 10:39:37;;;;;;;6.80;3.78;;;;;;;9.25;60.42;101092.41;5024005;28;20037;-75
2021/04/02 10:42:03;;;;;;;7.03;4.32;;;;;;;9.08;61.15;101089.59;5020596;28;20030;-75
2021/04/02 10:44:28;;;;;;;8.27;3.97;;;;;;;9.07;62.54;101085.22;5020535;28;20038;-75
2021/04/02 10:46:54;;;;;;;5.15;3.92;;;;;;;9.43;62.11;101083.72;5022484;28;20038;-75
2021/04/02 10:49:19;;;;;;;6.15;3.65;;;;;;;9.32;59.55;101082.78;5023779;28;20065;-75
2021/04/02 10:51:44;;;;;;;7.65;3.80;;;;;;;9.19;59.75;101080.03;5022805;28;20048;-74
2021/04/02 10:54:10;;;;;;;4.90;3.15;;;;;;;9.28;60.31;101073.97;5020441;28;20042;-75
2021/04/02 10:56:35;;;;;;;7.70;4.93;;;;;;;9.69;59.86;101070.72;5020126;28;20076;-74
2021/04/02 10:59:03;;;;;;;5.45;4.20;;;;;;;10.03;58.50;101066.56;5023446;28;20112;-73
2021/04/02 11:01:28;;;;;;;6.82;4.80;;;;;;;10.08;58.79;101070.06;5023571;28;20044;-73
2021/04/02 11:03:53;;;;;;;5.70;4.10;;;;;;;9.99;58.69;101069.16;5020035;28;20439;-74
2021/04/02 11:06:19;;;;;;;5.07;3.70;;;;;;;10.00;58.08;101068.28;5019874;28;20030;-73
2021/04/02 11:08:44;;;;;;;6.80;4.35;;;;;;;9.90;58.53;101069.09;5020987;28;20091;-73
2021/04/02 11:11:09;;;;;;;5.07;3.20;;;;;;;9.57;58.52;101063.66;5030298;28;20049;-73
2021/04/02 11:13:35;;;;;;;9.70;5.65;;;;;;;9.33;59.56;101066.13;5023485;28;20184;-73
2021/04/02 11:16:01;;;;;;;4.80;2.97;;;;;;;9.35;59.73;101057.38;5019971;28;20072;-73
2021/04/02 11:18:26;;;;;;;6.20;3.10;;;;;;;9.38;59.34;101059.13;5030462;28;20094;-72
2021/04/02 11:20:51;;;;;;;4.80;3.40;;;;;;;9.30;59.32;101048.53;5021338;28;20137;-73
2021/04/02 11:23:18;;;;;;;5.55;3.22;;;;;;;9.31;59.41;101065.22;5028178;28;20025;-73
2021/04/02 11:25:45;;;;;;;4.13;2.70;;;;;;;9.05;60.31;101055.34;5025605;28;20041;-73
2021/04/02 11:28:10;;;;;;;4.75;3.03;;;;;;;8.78;60.34;101061.25;5030203;28;20133;-73
2021/04/02 11:30:36;;;;;;;5.22;3.30;;;;;;;8.77;61.05;101055.09;5023116;28;20458;-73
2021/04/02 11:33:01;;;;;;;6.38;3.38;;;;;;;8.70;61.26;101049.78;5019016;28;20041;-73
2021/04/02 11:35:27;;;;;;;5.80;3.60;;;;;;;8.75;62.12;101048.06;5019506;28;20026;-73
2021/04/02 11:37:52;;;;;;;5.55;3.67;;;;;;;8.87;61.33;101053.44;5021505;28;20072;-73